Time;durP1;ratioP1;P1;durP2;ratioP2;P2;SDS_P1;SDS_P2;PMS_P1;PMS_P2;Temp;Humidity;BMP_temperature;BMP_pressure;BME280_temperature;BME280_humidity;BME280_pressure;Samples;Min_cycle;Max_cycle;Signal;HPM_P1;HPM_P2
2023/10/21 00:01:27;;;;;;;1.80;0.90;;;;;;;17.58;65.01;97557.25;5049099;28;20180;-61
2023/10/21 00:03:52;;;;;;;1.50;0.73;;;;;;;17.58;64.86;97557.25;5058282;28;20200;-61
2023/10/21 00:06:18;;;;;;;1.60;0.70;;;;;;;17.59;65.03;97580.88;5049208;28;20222;-61
2023/10/21 00:08:43;;;;;;;1.80;0.90;;;;;;;17.59;64.96;97584.53;5049877;28;20172;-61
2023/10/21 00:11:09;;;;;;;3.80;1.20;;;;;;;17.58;64.99;97585.78;5053999;28;20262;-61
2023/10/21 00:13:35;;;;;;;1.60;0.80;;;;;;;17.58;65.25;97590.69;5052071;28;20183;-60
2023/10/21 00:16:02;;;;;;;1.50;0.70;;;;;;;17.59;65.43;97600.84;5057925;28;20213;-60
2023/10/21 00:18:27;;;;;;;1.77;0.87;;;;;;;17.58;64.95;97620.03;5052127;28;20454;-60
2023/10/21 00:20:55;;;;;;;1.70;0.80;;;;;;;17.58;64.80;97631.44;5054566;28;20465;-60
2023/10/21 00:23:22;;;;;;;2.47;1.10;;;;;;;17.59;65.22;97632.22;5061461;28;20214;-60
2023/10/21 00:25:47;;;;;;;1.83;0.80;;;;;;;17.59;65.06;97641.59;5056184;28;20487;-60
2023/10/21 00:28:12;;;;;;;2.37;0.90;;;;;;;17.58;64.90;97647.72;5071686;28;20788;-61
2023/10/21 00:30:38;;;;;;;1.73;0.90;;;;;;;17.58;65.33;97665.66;5072043;28;20590;-60
2023/10/21 00:33:03;;;;;;;2.57;1.57;;;;;;;17.57;65.24;97664.06;5072659;28;20550;-60
2023/10/21 00:35:31;;;;;;;2.07;1.00;;;;;;;17.59;65.02;97664.41;5070517;28;20676;-61
2023/10/21 00:37:56;;;;;;;1.53;0.83;;;;;;;17.58;65.29;97670.56;5067798;28;20191;-60
2023/10/21 00:40:22;;;;;;;1.97;0.93;;;;;;;17.56;65.14;97679.53;5052764;28;20941;-60
2023/10/21 00:42:48;;;;;;;2.53;0.90;;;;;;;17.57;65.12;97686.88;5058254;28;20983;-60
2023/10/21 00:45:14;;;;;;;1.37;0.70;;;;;;;17.58;64.92;97691.34;5064315;28;20187;-60
2023/10/21 00:47:39;;;;;;;1.40;0.60;;;;;;;17.60;65.24;97697.41;5069811;28;20431;-60
2023/10/21 00:50:05;;;;;;;1.80;0.80;;;;;;;17.59;65.36;97710.06;5069586;28;20175;-60
2023/10/21 00:52:31;;;;;;;1.63;0.70;;;;;;;17.59;65.61;97710.06;5072508;28;20277;-61
2023/10/21 00:54:57;;;;;;;1.60;0.80;;;;;;;17.59;65.14;97714.94;5067312;28;20185;-60
2023/10/21 00:57:23;;;;;;;1.30;0.60;;;;;;;17.58;65.07;97719.88;5066967;28;20195;-61
2023/10/21 00:59:49;;;;;;;1.80;0.83;;;;;;;17.60;65.01;97728.00;5052402;28;20421;-61
2023/10/21 01:02:14;;;;;;;3.20;0.80;;;;;;;17.58;65.20;97731.28;5052407;28;20449;-61
2023/10/21 01:04:40;;;;;;;1.70;0.87;;;;;;;17.60;64.80;97733.72;5052739;28;20202;-60
2023/10/21 01:07:05;;;;;;;1.70;0.90;;;;;;;17.58;64.99;97734.13;5072253;28;20198;-60
2023/10/21 01:09:31;;;;;;;2.17;1.00;;;;;;;17.57;65.14;97749.66;5060489;28;20203;-60
2023/10/21 01:11:56;;;;;;;1.90;0.80;;;;;;;17.58;65.29;97754.09;5054494;28;20191;-60
2023/10/21 01:14:22;;;;;;;1.83;0.93;;;;;;;17.58;65.06;97747.59;5049626;28;20220;-61
2023/10/21 01:16:47;;;;;;;4.00;0.70;;;;;;;17.59;65.13;97757.75;5061605;28;20180;-60
2023/10/21 01:19:13;;;;;;;2.10;1.00;;;;;;;17.57;64.85;97760.25;5053220;28;20192;-60
2023/10/21 01:21:39;;;;;;;1.60;0.70;;;;;;;17.57;65.06;97781.03;5057732;28;20190;-60
2023/10/21 01:24:05;;;;;;;1.50;0.73;;;;;;;17.59;65.10;97780.56;5051790;28;20867;-60
2023/10/21 01:26:30;;;;;;;1.37;0.70;;;;;;;17.58;65.10;97776.09;5069787;28;20239;-61
2023/10/21 01:28:56;;;;;;;1.87;0.70;;;;;;;17.58;65.22;97776.94;5071974;28;20429;-60
2023/10/21 01:31:21;;;;;;;1.50;0.80;;;;;;;17.58;64.92;97782.63;5056557;28;20187;-60
2023/10/21 01:33:47;;;;;;;1.60;0.80;;;;;;;17.57;65.09;97783.06;5057013;28;20198;-61
2023/10/21 01:36:12;;;;;;;1.30;0.60;;;;;;;17.57;65.26;97797.31;5051732;28;20179;-60
2023/10/21 01:38:38;;;;;;;1.90;0.90;;;;;;;17.57;65.01;97798.16;5051624;28;20187;-60
2023/10/21 01:41:04;;;;;;;2.03;0.70;;;;;;;17.56;65.09;97799.34;5052388;28;20188;-60
2023/10/21 01:43:29;;;;;;;1.50;0.67;;;;;;;17.56;65.20;97816.47;5064716;28;20515;-61
2023/10/21 01:45:55;;;;;;;1.53;0.67;;;;;;;17.57;65.46;97803.03;5051476;28;20175;-60
2023/10/21 01:48:20;;;;;;;1.50;0.80;;;;;;;17.57;65.13;97811.59;5069177;28;20205;-61
2023/10/21 01:50:47;;;;;;;1.50;0.80;;;;;;;17.56;65.33;97813.63;5055336;28;20500;-60
2023/10/21 01:53:13;;;;;;;1.43;0.60;;;;;;;17.57;65.07;97823.00;5067206;28;20198;-61
2023/10/21 01:55:39;;;;;;;1.93;0.90;;;;;;;17.57;65.06;97826.66;5069738;28;20433;-60
2023/10/21 01:58:04;;;;;;;2.40;1.00;;;;;;;17.57;64.91;97826.66;5058175;28;20438;-60
2023/10/21 02:00:30;;;;;;;1.97;0.90;;;;;;;17.57;65.08;97834.41;5070005;28;20236;-60
2023/10/21 02:02:56;;;;;;;2.07;0.70;;;;;;;17.57;65.16;97848.69;5070281;28;20248;-61
2023/10/21 02:05:22;;;;;;;1.50;0.70;;;;;;;17.57;65.47;97857.22;5061919;28;20203;-61
2023/10/21 02:07:48;;;;;;;1.73;0.73;;;;;;;17.56;65.08;97856.41;5049778;28;20816;-60
2023/10/21 02:10:13;;;;;;;1.63;0.73;;;;;;;17.56;65.16;97855.63;5052593;28;20422;-60
2023/10/21 02:12:39;;;;;;;1.33;0.67;;;;;;;17.57;65.07;97863.75;5049821;28;20191;-61
2023/10/21 02:15:06;;;;;;;1.53;0.80;;;;;;;17.56;65.19;97873.53;5062981;28;20685;-61
2023/10/21 02:17:32;;;;;;;1.50;0.70;;;;;;;17.55;65.08;97880.47;5052867;28;20192;-61
2023/10/21 02:19:57;;;;;;;2.20;0.83;;;;;;;17.56;65.38;97890.66;5055997;28;20484;-61
2023/10/21 02:22:26;;;;;;;1.90;0.90;;;;;;;17.56;65.34;97899.22;5054045;28;20206;-61
2023/10/21 02:24:53;;;;;;;1.30;0.60;;;;;;;17.57;65.28;97903.69;5050823;28;20302;-60
2023/10/21 02:27:19;;;;;;;1.50;0.67;;;;;;;17.55;65.17;97911.88;5056264;28;20446;-61
2023/10/21 02:29:44;;;;;;;1.60;0.77;;;;;;;17.56;65.20;97919.19;5058335;28;20956;-60
2023/10/21 02:32:09;;;;;;;1.63;0.70;;;;;;;17.57;65.45;97920.00;5050652;28;20647;-61
2023/10/21 02:34:35;;;;;;;2.10;0.90;;;;;;;17.57;65.34;97937.13;5058993;28;20788;-61
2023/10/21 02:37:01;;;;;;;1.40;0.70;;;;;;;17.56;65.14;97938.34;5066779;28;20245;-61
2023/10/21 02:39:26;;;;;;;2.27;0.70;;;;;;;17.57;65.13;97942.81;5069949;28;20194;-60
2023/10/21 02:41:52;;;;;;;2.77;0.80;;;;;;;17.55;65.19;97951.81;5061900;28;20555;-61
2023/10/21 02:44:17;;;;;;;1.33;0.60;;;;;;;17.55;65.11;97959.56;5061008;28;20215;-60
2023/10/21 02:46:43;;;;;;;1.67;0.87;;;;;;;17.56;65.09;97964.81;5051298;28;20182;-61
2023/10/21 02:49:08;;;;;;;2.03;0.90;;;;;;;17.55;65.39;97966.06;5050140;28;20184;-61
2023/10/21 02:51:33;;;;;;;1.50;0.70;;;;;;;17.55;65.19;97968.91;5058328;28;20237;-61
2023/10/21 02:53:59;;;;;;;1.80;0.90;;;;;;;17.55;65.39;97974.63;5067035;28;20320;-61
2023/10/21 02:56:24;;;;;;;2.73;0.80;;;;;;;17.57;65.17;97977.06;5069741;28;20183;-61
2023/10/21 02:58:50;;;;;;;1.50;0.80;;;;;;;17.56;64.95;97981.16;5068300;28;20198;-60
2023/10/21 03:01:19;;;;;;;1.50;0.60;;;;;;;17.55;65.00;97973.84;5064660;28;20643;-60
2023/10/21 03:03:45;;;;;;;1.47;0.80;;;;;;;17.55;65.25;97990.94;5052663;28;20210;-60
2023/10/21 03:06:12;;;;;;;1.40;0.60;;;;;;;17.54;65.29;97984.44;5068040;28;20417;-61
2023/10/21 03:08:37;;;;;;;1.87;0.70;;;;;;;17.55;65.32;97988.88;5067532;28;20414;-60
2023/10/21 03:11:06;;;;;;;1.70;0.90;;;;;;;17.55;65.19;97991.75;5065775;28;20449;-60
2023/10/21 03:13:32;;;;;;;1.40;0.70;;;;;;;17.55;65.04;97988.88;5061351;28;20203;-60
2023/10/21 03:15:58;;;;;;;1.73;0.83;;;;;;;17.54;65.15;97990.13;5048495;28;20434;-60
2023/10/21 03:18:24;;;;;;;2.00;0.70;;;;;;;17.56;65.50;97992.56;5049908;28;20464;-60
2023/10/21 03:20:50;;;;;;;2.00;0.70;;;;;;;17.57;65.19;98006.41;5068662;28;20661;-60
2023/10/21 03:23:16;;;;;;;1.30;0.53;;;;;;;17.56;65.19;98006.81;5067270;28;20195;-60
2023/10/21 03:25:41;;;;;;;1.60;0.70;;;;;;;17.54;65.26;98015.81;5052594;28;20478;-61
2023/10/21 03:28:06;;;;;;;1.60;0.80;;;;;;;17.54;65.25;98018.66;5049504;28;20214;-61
2023/10/21 03:30:32;;;;;;;1.73;0.60;;;;;;;17.54;65.15;98024.38;5051950;28;20195;-61
2023/10/21 03:32:57;;;;;;;2.97;0.73;;;;;;;17.54;65.62;98017.84;5051469;28;20237;-61
2023/10/21 03:35:23;;;;;;;1.87;0.67;;;;;;;17.54;65.23;98023.53;5049960;28;20179;-61
2023/10/21 03:37:48;;;;;;;1.60;1.00;;;;;;;17.55;65.16;98025.97;5062869;28;20183;-61
2023/10/21 03:40:14;;;;;;;1.90;0.80;;;;;;;17.55;64.99;98025.19;5054781;28;20245;-61
2023/10/21 03:42:39;;;;;;;1.40;0.60;;;;;;;17.55;65.05;98036.59;5049445;28;20164;-60
2023/10/21 03:45:05;;;;;;;1.53;0.63;;;;;;;17.56;65.08;98035.34;5049238;28;20180;-61
2023/10/21 03:47:31;;;;;;;1.70;0.70;;;;;;;17.54;65.27;98047.19;5065667;28;20195;-61
2023/10/21 03:49:57;;;;;;;1.60;0.83;;;;;;;17.56;65.55;98049.63;5053380;28;20472;-61
2023/10/21 03:52:23;;;;;;;4.03;1.10;;;;;;;17.55;65.57;98060.22;5060468;28;20197;-61
2023/10/21 03:54:48;;;;;;;1.63;0.80;;;;;;;17.56;65.35;98061.81;5062354;28;20426;-60
2023/10/21 03:57:13;;;;;;;1.70;0.73;;;;;;;17.56;65.17;98058.97;5048340;28;20234;-61
2023/10/21 03:59:39;;;;;;;1.30;0.63;;;;;;;17.56;65.17;98073.22;5047377;28;20203;-61
2023/10/21 04:02:05;;;;;;;1.83;0.77;;;;;;;17.56;65.14;98075.28;5060489;28;20175;-60
2023/10/21 04:04:31;;;;;;;1.70;0.73;;;;;;;17.55;65.11;98074.47;5067307;28;20199;-60
2023/10/21 04:06:56;;;;;;;1.90;0.77;;;;;;;17.55;65.08;98071.63;5066876;28;21192;-61
2023/10/21 04:09:22;;;;;;;1.60;0.80;;;;;;;17.55;65.10;98088.75;5068345;28;20665;-61
2023/10/21 04:11:48;;;;;;;1.40;0.60;;;;;;;17.54;65.00;98098.53;5066690;28;20171;-61
2023/10/21 04:14:14;;;;;;;2.23;0.60;;;;;;;17.55;65.17;98100.16;5053716;28;20195;-61
2023/10/21 04:16:44;;;;;;;1.50;0.60;;;;;;;17.55;65.25;98105.06;5058514;28;20183;-60
2023/10/21 04:19:10;;;;;;;1.90;0.80;;;;;;;17.55;64.93;98108.72;5051270;28;20184;-61
2023/10/21 04:21:36;;;;;;;1.30;0.50;;;;;;;17.56;65.02;98106.69;5049053;28;20600;-61
2023/10/21 04:24:02;;;;;;;1.77;0.80;;;;;;;17.55;65.21;98119.34;5064102;28;20221;-61
2023/10/21 04:26:28;;;;;;;1.50;0.70;;;;;;;17.55;65.22;98117.25;5066315;28;20437;-61
2023/10/21 04:28:54;;;;;;;1.60;0.70;;;;;;;17.55;65.27;98122.19;5067251;28;20543;-61
2023/10/21 04:31:19;;;;;;;1.77;0.80;;;;;;;17.55;65.03;98128.69;5065157;28;20183;-61
2023/10/21 04:33:45;;;;;;;1.40;0.63;;;;;;;17.56;64.96;98126.66;5048706;28;20910;-60
2023/10/21 04:36:10;;;;;;;1.60;0.70;;;;;;;17.54;65.18;98121.38;5048936;28;20612;-61
2023/10/21 04:38:36;;;;;;;1.97;0.70;;;;;;;17.55;65.25;98142.16;5051393;28;20183;-61
2023/10/21 04:41:02;;;;;;;1.50;0.73;;;;;;;17.54;64.94;98141.34;5060672;28;20183;-61
2023/10/21 04:43:28;;;;;;;1.57;0.60;;;;;;;17.55;65.03;98151.50;5050809;28;21077;-61
2023/10/21 04:45:53;;;;;;;1.30;0.60;;;;;;;17.56;65.03;98153.13;5048888;28;20418;-60
2023/10/21 04:48:19;;;;;;;1.47;0.77;;;;;;;17.54;65.33;98147.03;5048461;28;20182;-61
2023/10/21 04:50:44;;;;;;;1.47;0.60;;;;;;;17.55;64.79;98160.06;5063622;28;20182;-60
2023/10/21 04:53:10;;;;;;;3.80;0.70;;;;;;;17.55;64.97;98165.75;5068497;28;20205;-61
2023/10/21 04:55:35;;;;;;;1.23;0.57;;;;;;;17.56;64.84;98167.38;5055600;28;20180;-61
2023/10/21 04:58:01;;;;;;;2.30;0.80;;;;;;;17.56;65.09;98173.09;5047579;28;20184;-61
2023/10/21 05:00:28;;;;;;;1.40;0.60;;;;;;;17.55;65.13;98168.63;5065853;28;20188;-61
2023/10/21 05:02:54;;;;;;;2.30;0.77;;;;;;;17.56;65.17;98184.50;5052121;28;20254;-60
2023/10/21 05:05:19;;;;;;;1.50;0.80;;;;;;;17.54;65.15;98181.28;5051215;28;20418;-61
2023/10/21 05:07:45;;;;;;;3.20;0.70;;;;;;;17.55;65.09;98200.00;5058800;28;20183;-61
2023/10/21 05:10:11;;;;;;;2.40;0.60;;;;;;;17.55;65.13;98197.16;5060135;28;20182;-61
2023/10/21 05:12:36;;;;;;;1.77;0.80;;;;;;;17.55;65.46;98199.22;5069351;28;20186;-61
2023/10/21 05:15:02;;;;;;;1.73;0.80;;;;;;;17.54;65.18;98212.66;5067166;28;20257;-61
2023/10/21 05:17:28;;;;;;;1.67;0.70;;;;;;;17.54;65.13;98211.84;5054110;28;20647;-61
2023/10/21 05:19:53;;;;;;;1.60;0.70;;;;;;;17.56;64.84;98220.78;5052348;28;20476;-60
2023/10/21 05:22:18;;;;;;;1.43;0.60;;;;;;;17.56;65.36;98233.00;5060677;28;20198;-61
2023/10/21 05:24:44;;;;;;;1.63;0.80;;;;;;;17.57;64.91;98228.94;5071926;28;20665;-61
2023/10/21 05:27:10;;;;;;;2.20;0.70;;;;;;;17.58;65.07;98233.41;5055221;28;20191;-61
2023/10/21 05:29:35;;;;;;;2.90;0.80;;;;;;;17.57;65.33;98240.34;5071083;28;20183;-61
2023/10/21 05:32:01;;;;;;;1.50;0.70;;;;;;;17.56;65.08;98255.81;5064532;28;20261;-61
2023/10/21 05:34:26;;;;;;;1.60;0.90;;;;;;;17.57;65.17;98260.31;5061473;28;20217;-61
2023/10/21 05:36:52;;;;;;;1.37;0.60;;;;;;;17.57;65.19;98262.34;5057803;28;20502;-61
2023/10/21 05:39:18;;;;;;;1.70;0.70;;;;;;;17.56;64.99;98269.28;5064717;28;20183;-61
2023/10/21 05:41:43;;;;;;;1.40;0.60;;;;;;;17.57;64.94;98274.59;5052908;28;20191;-61
2023/10/21 05:44:09;;;;;;;1.37;0.63;;;;;;;17.55;65.16;98274.19;5051240;28;20199;-61
2023/10/21 05:46:34;;;;;;;1.43;0.73;;;;;;;17.57;64.92;98286.00;5068713;28;20533;-60
2023/10/21 05:49:01;;;;;;;1.50;0.70;;;;;;;17.56;64.94;98292.91;5071208;28;20175;-61
2023/10/21 05:51:27;;;;;;;1.40;0.60;;;;;;;17.57;64.84;98291.69;5069865;28;20178;-61
2023/10/21 05:53:52;;;;;;;1.37;0.60;;;;;;;17.58;64.84;98299.03;5053678;28;20499;-61
2023/10/21 05:56:18;;;;;;;1.57;0.70;;;;;;;17.58;65.08;98306.75;5069066;28;20433;-61
2023/10/21 05:58:43;;;;;;;2.00;0.70;;;;;;;17.56;65.26;98310.03;5067718;28;20178;-61
2023/10/21 06:01:09;;;;;;;1.30;0.60;;;;;;;17.57;65.07;98316.56;5068672;28;20213;-61
2023/10/21 06:03:35;;;;;;;1.40;0.60;;;;;;;17.58;65.06;98332.44;5063637;28;20204;-61
2023/10/21 06:06:01;;;;;;;1.33;0.57;;;;;;;17.58;65.04;98335.28;5052327;28;20171;-61
2023/10/21 06:08:28;;;;;;;1.50;0.60;;;;;;;17.57;65.16;98331.66;5069165;28;20960;-61
2023/10/21 06:10:54;;;;;;;1.43;0.70;;;;;;;17.57;65.10;98336.53;5073241;28;20167;-61
2023/10/21 06:13:20;;;;;;;1.33;0.57;;;;;;;17.56;65.10;98341.41;5062933;28;20904;-60
2023/10/21 06:15:47;;;;;;;1.67;0.63;;;;;;;17.56;65.13;98347.13;5051674;28;20706;-60
2023/10/21 06:18:12;;;;;;;2.00;0.80;;;;;;;17.58;65.16;98352.41;5050969;28;20175;-61
2023/10/21 06:20:38;;;;;;;2.50;0.80;;;;;;;17.56;65.02;98352.81;5070136;28;20816;-61
2023/10/21 06:23:03;;;;;;;1.97;0.97;;;;;;;17.57;65.29;98365.06;5070516;28;20195;-60
2023/10/21 06:25:30;;;;;;;1.80;0.80;;;;;;;17.57;64.96;98377.28;5060321;28;20175;-61
2023/10/21 06:27:57;;;;;;;1.63;0.70;;;;;;;17.60;64.80;98384.19;5053066;28;20183;-61
2023/10/21 06:30:22;;;;;;;1.40;0.63;;;;;;;17.57;64.96;98393.59;5051442;28;20472;-61
2023/10/21 06:32:48;;;;;;;1.43;0.70;;;;;;;17.58;65.29;98400.91;5053400;28;20758;-60
2023/10/21 06:35:13;;;;;;;1.50;0.60;;;;;;;17.59;64.82;98403.34;5066313;28;20205;-60
2023/10/21 06:37:39;;;;;;;1.20;0.50;;;;;;;17.58;64.72;98413.16;5067002;28;20178;-60
2023/10/21 06:40:05;;;;;;;1.30;0.57;;;;;;;17.58;64.97;98416.00;5069035;28;20182;-60
2023/10/21 06:42:30;;;;;;;1.70;0.70;;;;;;;17.57;65.08;98417.25;5068649;28;20190;-59
2023/10/21 06:44:56;;;;;;;1.77;0.70;;;;;;;17.59;64.98;98431.88;5069809;28;21222;-60
2023/10/21 06:47:21;;;;;;;1.33;0.60;;;;;;;17.60;64.96;98438.41;5066084;28;20179;-60
2023/10/21 06:49:47;;;;;;;1.80;0.80;;;;;;;17.59;64.72;98434.75;5069125;28;20175;-60
2023/10/21 06:52:13;;;;;;;1.50;0.70;;;;;;;17.59;65.08;98440.44;5066629;28;20175;-60
2023/10/21 06:54:38;;;;;;;1.63;0.60;;;;;;;17.59;65.11;98448.19;5067738;28;20170;-60
2023/10/21 06:57:04;;;;;;;1.40;0.70;;;;;;;17.59;64.96;98453.88;5057962;28;20176;-60
2023/10/21 06:59:30;;;;;;;1.57;0.80;;;;;;;17.60;65.21;98444.13;5048808;28;20172;-61
2023/10/21 07:01:56;;;;;;;1.47;0.60;;;;;;;17.58;64.69;98458.81;5064006;28;20917;-61
2023/10/21 07:04:21;;;;;;;1.60;0.70;;;;;;;17.61;64.98;98468.56;5069731;28;20457;-60
2023/10/21 07:06:48;;;;;;;1.30;0.70;;;;;;;17.60;64.97;98455.53;5070131;28;20167;-60
2023/10/21 07:09:13;;;;;;;1.40;0.70;;;;;;;17.59;64.74;98479.56;5065112;28;20305;-60
2023/10/21 07:11:40;;;;;;;1.50;0.67;;;;;;;17.59;65.13;98476.72;5061741;28;20450;-61
2023/10/21 07:14:05;;;;;;;1.40;0.60;;;;;;;17.58;64.89;98475.91;5052606;28;20207;-60
2023/10/21 07:16:31;;;;;;;1.30;0.60;;;;;;;17.60;64.99;98498.34;5060511;28;20460;-60
2023/10/21 07:18:57;;;;;;;1.20;0.60;;;;;;;17.60;64.92;98507.69;5069983;28;20174;-60
2023/10/21 07:21:22;;;;;;;1.40;0.50;;;;;;;17.60;64.95;98501.97;5069627;28;20231;-61
2023/10/21 07:23:48;;;;;;;1.33;0.67;;;;;;;17.59;64.83;98506.06;5053717;28;20234;-61
2023/10/21 07:26:13;;;;;;;1.50;0.60;;;;;;;17.61;65.03;98511.38;5056030;28;20188;-60
2023/10/21 07:28:39;;;;;;;1.47;0.63;;;;;;;17.61;64.93;98514.22;5060042;28;20179;-60
2023/10/21 07:31:04;;;;;;;1.53;0.50;;;;;;;17.60;65.00;98512.59;5056565;28;20186;-60
2023/10/21 07:33:30;;;;;;;1.20;0.50;;;;;;;17.58;65.24;98515.88;5068966;28;20183;-60
2023/10/21 07:35:55;;;;;;;2.53;0.80;;;;;;;17.59;65.09;98531.75;5067636;28;20586;-60
2023/10/21 07:38:21;;;;;;;1.73;0.90;;;;;;;17.60;65.11;98536.22;5048719;28;20229;-60
2023/10/21 07:40:47;;;;;;;2.50;0.67;;;;;;;17.59;65.11;98534.59;5063873;28;20186;-61
2023/10/21 07:43:13;;;;;;;1.50;0.70;;;;;;;17.60;65.11;98547.63;5054583;28;20211;-60
2023/10/21 07:45:42;;;;;;;1.40;0.70;;;;;;;17.60;64.83;98553.34;5048289;28;20430;-60
2023/10/21 07:48:07;;;;;;;1.50;0.70;;;;;;;17.61;65.01;98554.16;5062615;28;20432;-60
2023/10/21 07:50:33;;;;;;;1.40;0.60;;;;;;;17.62;64.88;98555.78;5066886;28;20803;-61
2023/10/21 07:52:58;;;;;;;1.30;0.60;;;;;;;17.62;64.98;98555.78;5064168;28;20509;-60
2023/10/21 07:55:24;;;;;;;1.33;0.60;;;;;;;17.62;65.05;98559.47;5057842;28;20187;-60
2023/10/21 07:57:49;;;;;;;2.03;0.60;;;;;;;17.63;65.01;98563.13;5055442;28;20195;-60
2023/10/21 08:00:15;;;;;;;1.53;0.60;;;;;;;17.62;64.64;98564.34;5049931;28;20183;-60
2023/10/21 08:02:41;;;;;;;1.50;0.60;;;;;;;17.64;64.85;98564.72;5054594;28;20203;-61
2023/10/21 08:05:07;;;;;;;1.80;0.70;;;;;;;17.62;65.08;98565.16;5052073;28;20207;-60
2023/10/21 08:07:33;;;;;;;1.30;0.60;;;;;;;17.62;64.89;98573.72;5061035;28;20434;-60
2023/10/21 08:09:59;;;;;;;1.30;0.60;;;;;;;17.62;65.01;98576.59;5054652;28;20447;-60
2023/10/21 08:12:24;;;;;;;1.30;0.60;;;;;;;17.63;64.90;98583.91;5049319;28;20422;-60
2023/10/21 08:14:50;;;;;;;1.20;0.57;;;;;;;17.64;65.13;98587.56;5055300;28;20198;-60
2023/10/21 08:17:15;;;;;;;1.30;0.60;;;;;;;17.63;64.67;98581.06;5062814;28;20183;-60
2023/10/21 08:19:40;;;;;;;1.37;0.60;;;;;;;17.64;65.02;98579.81;5063145;28;20250;-60
2023/10/21 08:22:06;;;;;;;1.93;0.70;;;;;;;17.64;64.64;98573.28;5057037;28;20996;-60
2023/10/21 08:24:32;;;;;;;2.23;0.97;;;;;;;17.65;65.12;98578.59;5049151;28;20231;-60
2023/10/21 08:26:59;;;;;;;1.30;0.50;;;;;;;17.64;64.95;98591.25;5048324;28;20271;-61
2023/10/21 08:29:25;;;;;;;1.83;0.50;;;;;;;17.63;64.85;98598.19;5054740;28;20194;-60
2023/10/21 08:31:51;;;;;;;1.47;0.53;;;;;;;17.64;65.17;98601.81;5053698;28;20505;-61
2023/10/21 08:34:17;;;;;;;1.40;0.60;;;;;;;17.63;64.96;98612.44;5047783;28;20426;-60
2023/10/21 08:36:42;;;;;;;1.40;0.50;;;;;;;17.65;64.94;98618.53;5062800;28;20187;-60
2023/10/21 08:39:08;;;;;;;1.50;0.63;;;;;;;17.65;64.75;98629.16;5068730;28;20203;-61
2023/10/21 08:41:37;;;;;;;1.50;0.60;;;;;;;17.65;64.85;98632.81;5057965;28;20367;-61
2023/10/21 08:44:03;;;;;;;1.77;0.77;;;;;;;17.66;64.72;98639.34;5069623;28;20214;-60
2023/10/21 08:46:28;;;;;;;1.90;0.90;;;;;;;17.66;64.92;98631.56;5057927;28;20453;-60
2023/10/21 08:48:54;;;;;;;1.40;0.53;;;;;;;17.64;64.82;98645.47;5050269;28;20191;-60
2023/10/21 08:51:20;;;;;;;2.53;0.53;;;;;;;17.66;64.91;98647.91;5062409;28;20203;-60
2023/10/21 08:53:49;;;;;;;1.70;0.67;;;;;;;17.65;64.88;98649.94;5050428;28;20258;-60
2023/10/21 08:56:14;;;;;;;1.47;0.70;;;;;;;17.65;64.78;98647.06;5070646;28;20425;-60
2023/10/21 08:58:41;;;;;;;4.13;0.70;;;;;;;17.66;64.56;98651.56;5071435;28;20453;-61
2023/10/21 09:01:07;;;;;;;2.40;0.50;;;;;;;17.65;64.50;98644.22;5067277;28;20195;-61
2023/10/21 09:03:35;;;;;;;1.80;0.90;;;;;;;17.67;64.86;98644.63;5053577;28;20465;-60
2023/10/21 09:06:04;;;;;;;1.30;0.60;;;;;;;17.68;64.65;98649.13;5043001;28;20183;-60
2023/10/21 09:08:31;;;;;;;1.73;0.63;;;;;;;17.67;64.87;98647.50;5056630;28;20413;-61
2023/10/21 09:10:59;;;;;;;1.50;0.60;;;;;;;17.66;64.69;98643.00;5059977;28;20458;-60
2023/10/21 09:13:30;;;;;;;1.40;0.70;;;;;;;17.67;64.57;98650.34;5051691;28;20430;-60
2023/10/21 09:15:55;;;;;;;1.40;0.70;;;;;;;17.69;64.53;98647.88;5055961;28;20462;-61
2023/10/21 09:18:21;;;;;;;1.20;0.50;;;;;;;17.69;64.74;98647.06;5053977;28;20460;-60
2023/10/21 09:20:49;;;;;;;2.37;0.57;;;;;;;17.70;64.38;98649.50;5062265;28;20322;-61
2023/10/21 09:23:17;;;;;;;1.73;0.60;;;;;;;17.68;64.60;98656.84;5051214;28;20232;-61
2023/10/21 09:25:48;;;;;;;1.70;0.70;;;;;;;17.69;64.97;98659.28;5054274;28;20615;-60
2023/10/21 09:28:19;;;;;;;1.17;0.50;;;;;;;17.68;64.81;98663.38;5062834;28;20434;-61
2023/10/21 09:31:01;;;;;;;1.30;0.50;;;;;;;17.70;64.58;98663.78;5062945;28;20453;-60
2023/10/21 09:33:26;;;;;;;1.50;0.60;;;;;;;17.70;64.37;98675.19;5059786;28;20839;-60
2023/10/21 09:36:03;;;;;;;6.07;0.60;;;;;;;17.69;64.86;98667.84;5060160;28;20454;-60
2023/10/21 09:38:34;;;;;;;3.40;0.60;;;;;;;17.77;65.04;98666.59;5061139;28;20329;-61
2023/10/21 09:40:59;;;;;;;1.60;0.70;;;;;;;17.75;64.84;98662.53;5062702;28;20445;-60
2023/10/21 09:43:25;;;;;;;2.50;0.90;;;;;;;17.73;65.03;98664.97;5051030;28;20550;-61
2023/10/21 09:45:50;;;;;;;2.20;0.87;;;;;;;17.71;65.07;98665.38;5031059;28;20187;-60
2023/10/21 09:48:16;;;;;;;1.30;0.50;;;;;;;17.73;64.90;98660.09;5052385;28;20192;-60
2023/10/21 09:50:52;;;;;;;1.80;0.63;;;;;;;17.72;65.24;98660.50;5064220;28;20191;-61
2023/10/21 09:53:23;;;;;;;5.90;0.60;;;;;;;17.70;65.41;98660.91;5047398;28;20583;-60
2023/10/21 09:55:48;;;;;;;1.40;0.50;;;;;;;17.71;65.29;98661.75;5064761;28;20430;-60
2023/10/21 09:58:14;;;;;;;1.70;0.57;;;;;;;17.72;65.00;98672.75;5067986;28;20499;-60
2023/10/21 10:00:40;;;;;;;1.70;0.60;;;;;;;17.72;65.11;98672.75;5068101;28;20189;-60
2023/10/21 10:03:06;;;;;;;4.20;0.80;;;;;;;17.74;65.03;98678.84;5060521;28;20187;-60
2023/10/21 10:05:31;;;;;;;2.00;0.70;;;;;;;17.73;65.25;98677.22;5053555;28;20429;-60
2023/10/21 10:07:56;;;;;;;1.97;0.70;;;;;;;17.75;65.60;98679.66;5057021;28;20993;-60
2023/10/21 10:10:24;;;;;;;1.73;0.63;;;;;;;17.74;65.07;98678.84;5051604;28;20647;-61
2023/10/21 10:13:11;;;;;;;1.50;0.60;;;;;;;17.73;65.74;98673.53;5059252;28;20653;-60
2023/10/21 10:15:41;;;;;;;2.60;0.60;;;;;;;17.74;65.38;98672.31;5062352;28;20437;-59
2023/10/21 10:18:15;;;;;;;3.07;0.70;;;;;;;17.73;65.15;98667.84;5067987;28;20456;-60
2023/10/21 10:20:45;;;;;;;1.77;0.70;;;;;;;17.74;65.00;98672.31;5053015;28;20465;-61
2023/10/21 10:23:12;;;;;;;2.93;0.90;;;;;;;17.74;64.94;98664.56;5050734;28;20568;-61
2023/10/21 10:25:38;;;;;;;1.83;0.77;;;;;;;17.75;65.41;98673.97;5050344;28;20452;-61
2023/10/21 10:28:05;;;;;;;2.43;0.70;;;;;;;17.75;65.34;98677.59;5054948;28;20547;-60
2023/10/21 10:30:31;;;;;;;1.50;0.60;;;;;;;17.75;65.52;98673.97;5059358;28;20442;-60
2023/10/21 10:32:58;;;;;;;5.63;1.20;;;;;;;17.74;65.53;98675.97;5057676;28;20437;-60
2023/10/21 10:35:30;;;;;;;2.63;0.90;;;;;;;17.76;65.24;98687.00;5051924;28;20449;-60
2023/10/21 10:37:56;;;;;;;1.70;0.70;;;;;;;17.74;65.05;98672.31;5050501;28;20434;-59
2023/10/21 10:40:43;;;;;;;3.90;1.00;;;;;;;17.74;65.39;98675.97;5052271;28;20433;-60
2023/10/21 10:43:11;;;;;;;1.30;0.47;;;;;;;17.73;65.29;98676.41;5054193;28;20194;-60
2023/10/21 10:45:37;;;;;;;1.40;0.70;;;;;;;17.75;65.40;98671.91;5049728;28;20457;-60
2023/10/21 10:48:03;;;;;;;4.30;0.90;;;;;;;17.76;64.94;98673.53;5050955;28;20798;-60
2023/10/21 10:50:30;;;;;;;2.30;0.70;;;;;;;17.76;65.41;98682.09;5066870;28;20441;-60
2023/10/21 10:52:55;;;;;;;2.53;0.73;;;;;;;17.75;65.30;98680.47;5054270;28;20881;-60
2023/10/21 10:55:21;;;;;;;1.37;0.57;;;;;;;17.75;65.46;98680.47;5057806;28;20507;-60
2023/10/21 10:57:48;;;;;;;2.70;0.60;;;;;;;17.77;65.22;98682.91;5050569;28;20184;-60
2023/10/21 11:00:20;;;;;;;1.50;0.70;;;;;;;17.75;65.32;98689.03;5061300;28;20480;-60
2023/10/21 11:02:46;;;;;;;2.60;0.83;;;;;;;17.77;65.27;98694.31;5050163;28;20422;-60
2023/10/21 11:05:22;;;;;;;1.53;0.60;;;;;;;17.79;65.12;98689.00;5055588;28;20978;-60
2023/10/21 11:07:49;;;;;;;2.37;0.53;;;;;;;17.79;65.19;98686.16;5057966;28;20429;-60
2023/10/21 11:10:21;;;;;;;1.50;0.60;;;;;;;17.78;65.16;98681.66;5068759;28;20429;-60
2023/10/21 11:12:48;;;;;;;1.50;0.60;;;;;;;17.81;65.11;98678.00;5057005;28;20452;-60
2023/10/21 11:15:14;;;;;;;2.23;0.97;;;;;;;17.81;65.44;98684.50;5067969;28;20441;-60
2023/10/21 11:17:39;;;;;;;2.00;0.70;;;;;;;17.79;64.96;98686.97;5052055;28;20426;-60
2023/10/21 11:20:07;;;;;;;1.87;0.90;;;;;;;17.80;65.43;98687.78;5049886;28;20228;-60
2023/10/21 11:22:33;;;;;;;2.57;0.60;;;;;;;17.80;65.12;98679.22;5048343;28;20222;-60
2023/10/21 11:24:58;;;;;;;1.50;0.60;;;;;;;17.80;65.33;98685.75;5054358;28;20470;-60
2023/10/21 11:27:24;;;;;;;5.00;0.83;;;;;;;17.84;64.84;98674.28;5046024;28;20184;-59
2023/10/21 11:29:51;;;;;;;4.93;1.50;;;;;;;17.92;63.34;98679.56;5053646;28;20187;-60